Sinton, Texas
Current Conditions -  °F | °C
As of 8:51 PM on Thursday 20 Nov 2014 (Local Time) from KCRP Reporting Station
Overcast Overcast  
Wind Chill: 68°   Ceiling: 4300
Heat Index: 68°   Visibility: 10mi
Dew Point: 65°   Wind: 10mph
Humidity: 90%   Direction: 170°S
Pressure: 30.05"   Gusts: NA
Location:  28.04°N, 97.51°W
Report Text: KCRP 210251Z 17009KT 10SM SCT034 OVC043 20/18 A3005 RMK AO2 SLP175 T02000183 52011
Loading
Personal Weather Stations






























Interactive Weather Map New forecast layout! Learn more

10-Day Weather Forecast

Advertisements
Track Severe Weather on mobile